Time;durP1;ratioP1;P1;durP2;ratioP2;P2;SDS_P1;SDS_P2;PMS_P1;PMS_P2;Temp;Humidity;BMP_temperature;BMP_pressure;BME280_temperature;BME280_humidity;BME280_pressure;Samples;Min_cycle;Max_cycle;Signal;HPM_P1;HPM_P2
2021/06/15 00:00:09;;;;;;;6.80;1.95;;;;;;;;;;5000568;28;20042;-54
2021/06/15 00:02:41;;;;;;;2.38;2.28;;;;;;;;;;5008754;28;20042;-54
2021/06/15 00:05:12;;;;;;;2.28;1.95;;;;;;;;;;5010080;28;20371;-54
2021/06/15 00:07:44;;;;;;;4.53;2.05;;;;;;;;;;5010520;28;20054;-53
2021/06/15 00:10:17;;;;;;;3.60;2.03;;;;;;;;;;5012636;28;20048;-54
2021/06/15 00:12:50;;;;;;;3.75;2.10;;;;;;;;;;5010703;28;20037;-55
2021/06/15 00:15:25;;;;;;;2.08;1.98;;;;;;;;;;5002297;28;20031;-54
2021/06/15 00:17:56;;;;;;;2.25;1.90;;;;;;;;;;5011568;28;20052;-52
2021/06/15 00:20:26;;;;;;;3.03;2.10;;;;;;;;;;5007924;28;20034;-55
2021/06/15 00:23:03;;;;;;;4.35;1.48;;;;;;;;;;5011507;28;20046;-53
2021/06/15 00:25:33;;;;;;;2.25;2.15;;;;;;;;;;5012021;28;20042;-55
2021/06/15 00:28:09;;;;;;;1.80;1.70;;;;;;;;;;4992282;28;20061;-53
2021/06/15 00:30:43;;;;;;;2.20;2.05;;;;;;;;;;5012442;28;20053;-54
2021/06/15 00:33:12;;;;;;;1.70;1.60;;;;;;;;;;5010039;28;20041;-54
2021/06/15 00:35:42;;;;;;;3.53;2.05;;;;;;;;;;5010112;28;20039;-55
2021/06/15 00:38:12;;;;;;;1.92;1.83;;;;;;;;;;5012323;28;20045;-55
2021/06/15 00:40:44;;;;;;;2.07;1.90;;;;;;;;;;5010056;28;20383;-55
2021/06/15 00:43:17;;;;;;;4.35;1.92;;;;;;;;;;5010683;28;20481;-55
2021/06/15 00:45:48;;;;;;;1.70;1.67;;;;;;;;;;5011091;28;20036;-55
2021/06/15 00:48:28;;;;;;;1.88;1.77;;;;;;;;;;4991986;28;20058;-55
2021/06/15 00:51:01;;;;;;;2.28;1.60;;;;;;;;;;5025721;28;20125;-53
2021/06/15 00:53:36;;;;;;;3.38;1.77;;;;;;;;;;5007025;28;20080;-54
2021/06/15 00:56:06;;;;;;;1.83;1.73;;;;;;;;;;5010095;28;20030;-55
2021/06/15 00:58:38;;;;;;;1.80;1.67;;;;;;;;;;5009932;28;20451;-53
2021/06/15 01:01:08;;;;;;;5.00;1.95;;;;;;;;;;5010711;28;20160;-54
2021/06/15 01:03:40;;;;;;;3.13;1.80;;;;;;;;;;5010254;28;20041;-55
2021/06/15 01:06:15;;;;;;;1.80;1.70;;;;;;;;;;5011450;28;20042;-55
2021/06/15 01:08:47;;;;;;;3.05;1.98;;;;;;;;;;5009981;28;20115;-54
2021/06/15 01:11:27;;;;;;;1.60;1.50;;;;;;;;;;5010941;28;20049;-55
2021/06/15 01:14:17;;;;;;;2.30;2.20;;;;;;;;;;5010577;28;20103;-55
2021/06/15 01:16:57;;;;;;;2.55;2.45;;;;;;;;;;5007477;28;20038;-54
2021/06/15 01:19:52;;;;;;;3.13;2.30;;;;;;;;;;5010131;28;20136;-55
2021/06/15 01:22:36;;;;;;;2.35;2.25;;;;;;;;;;5010689;28;20096;-53
2021/06/15 01:25:16;;;;;;;2.25;2.22;;;;;;;;;;5007199;28;20037;-54
2021/06/15 01:28:06;;;;;;;1.50;1.50;;;;;;;;;;4986231;28;20054;-55
2021/06/15 01:30:41;;;;;;;;;;;;;;;;;;5011720;28;20088;-54
2021/06/15 01:33:13;;;;;;;2.55;2.05;;;;;;;;;;5009819;28;20008;-55
2021/06/15 01:35:46;;;;;;;4.25;2.05;;;;;;;;;;5009323;28;20478;-54
2021/06/15 01:38:22;;;;;;;3.25;2.05;;;;;;;;;;5011021;28;20128;-55
2021/06/15 01:40:54;;;;;;;2.47;2.38;;;;;;;;;;5008331;28;20104;-54
2021/06/15 01:43:41;;;;;;;1.90;1.80;;;;;;;;;;5009748;28;20042;-55
2021/06/15 01:46:11;;;;;;;3.63;2.03;;;;;;;;;;5010584;28;20050;-53
2021/06/15 01:48:40;;;;;;;2.30;1.80;;;;;;;;;;5008624;28;20049;-54
2021/06/15 01:51:13;;;;;;;2.63;2.42;;;;;;;;;;5010573;28;20038;-54
2021/06/15 01:53:50;;;;;;;1.98;1.65;;;;;;;;;;5008535;28;20038;-55
2021/06/15 01:56:21;;;;;;;2.10;2.00;;;;;;;;;;5011494;28;20031;-55
2021/06/15 01:58:50;;;;;;;2.55;2.35;;;;;;;;;;5010704;28;20038;-55
2021/06/15 02:01:22;;;;;;;2.33;2.22;;;;;;;;;;5009625;28;20072;-53
2021/06/15 02:03:58;;;;;;;2.63;2.20;;;;;;;;;;4960920;28;20050;-55
2021/06/15 02:06:29;;;;;;;2.38;2.15;;;;;;;;;;5009031;28;20061;-55
2021/06/15 02:09:08;;;;;;;10.88;3.13;;;;;;;;;;5007201;28;20062;-55
2021/06/15 02:11:39;;;;;;;2.50;2.40;;;;;;;;;;4999809;28;20046;-55
2021/06/15 02:14:17;;;;;;;;;;;;;;;;;;5008288;28;20383;-55
2021/06/15 02:16:49;;;;;;;2.58;1.90;;;;;;;;;;4989804;28;19929;-55
2021/06/15 02:19:22;;;;;;;2.97;2.78;;;;;;;;;;5009478;28;20049;-54
2021/06/15 02:21:58;;;;;;;3.47;2.45;;;;;;;;;;5008214;28;20112;-54
2021/06/15 02:24:40;;;;;;;2.33;2.22;;;;;;;;;;5008463;28;20035;-55
2021/06/15 02:27:14;;;;;;;2.80;2.35;;;;;;;;;;5009785;28;20410;-55
2021/06/15 02:29:50;;;;;;;3.88;2.05;;;;;;;;;;5008774;28;20111;-55
2021/06/15 02:32:22;;;;;;;5.82;2.45;;;;;;;;;;5008938;28;20037;-54
2021/06/15 02:34:52;;;;;;;4.38;2.72;;;;;;;;;;5008687;28;20050;-56
2021/06/15 02:37:30;;;;;;;2.17;2.08;;;;;;;;;;5006788;28;20084;-55
2021/06/15 02:40:01;;;;;;;3.10;2.83;;;;;;;;;;5008770;28;20046;-54
2021/06/15 02:42:40;;;;;;;2.38;2.22;;;;;;;;;;5008579;28;20505;-54
2021/06/15 02:45:16;;;;;;;2.78;2.42;;;;;;;;;;5008828;28;20041;-55
2021/06/15 02:47:50;;;;;;;2.90;2.75;;;;;;;;;;5009465;28;20041;-54
2021/06/15 02:50:28;;;;;;;3.08;2.70;;;;;;;;;;5006847;28;20575;-54
2021/06/15 02:52:57;;;;;;;2.95;2.75;;;;;;;;;;5008433;28;20034;-55
2021/06/15 02:55:41;;;;;;;2.45;2.35;;;;;;;;;;5010494;28;20081;-54
2021/06/15 02:58:12;;;;;;;4.30;2.88;;;;;;;;;;5008996;28;20042;-55
2021/06/15 03:00:46;;;;;;;2.70;2.60;;;;;;;;;;5008241;28;20104;-55
2021/06/15 03:03:17;;;;;;;2.35;2.25;;;;;;;;;;5010143;28;20088;-55
2021/06/15 03:05:51;;;;;;;2.88;2.67;;;;;;;;;;5008446;28;20030;-55
2021/06/15 03:08:24;;;;;;;4.18;3.92;;;;;;;;;;5009466;28;20364;-55
2021/06/15 03:11:01;;;;;;;4.07;3.17;;;;;;;;;;4970039;28;20061;-55
2021/06/15 03:13:40;;;;;;;4.00;3.70;;;;;;;;;;5007721;28;20100;-55
2021/06/15 03:16:16;;;;;;;3.47;3.33;;;;;;;;;;5009255;28;20034;-55
2021/06/15 03:18:57;;;;;;;3.83;3.63;;;;;;;;;;5006176;28;20081;-54
2021/06/15 03:21:24;;;;;;;3.42;3.33;;;;;;;;;;5008046;28;20038;-55
2021/06/15 03:24:01;;;;;;;3.03;2.60;;;;;;;;;;5009511;28;20128;-55
2021/06/15 03:26:40;;;;;;;3.25;2.95;;;;;;;;;;5005662;28;21690;-56
2021/06/15 03:29:13;;;;;;;4.10;2.80;;;;;;;;;;5008242;28;20042;-55
2021/06/15 03:31:46;;;;;;;2.50;2.40;;;;;;;;;;5008839;28;20049;-55
2021/06/15 03:34:21;;;;;;;3.00;2.75;;;;;;;;;;5007070;28;20401;-55
2021/06/15 03:36:52;;;;;;;;;;;;;;;;;;5008889;28;20030;-56
2021/06/15 03:39:25;;;;;;;3.28;3.08;;;;;;;;;;5009487;28;19932;-55
2021/06/15 03:41:57;;;;;;;2.97;2.88;;;;;;;;;;5006567;28;20034;-55
2021/06/15 03:44:33;;;;;;;5.65;3.78;;;;;;;;;;5010071;28;20061;-56
2021/06/15 03:47:10;;;;;;;2.75;2.65;;;;;;;;;;5011785;28;20041;-60
2021/06/15 03:49:43;;;;;;;3.15;3.05;;;;;;;;;;5011797;28;20137;-56
2021/06/15 03:52:16;;;;;;;3.20;3.10;;;;;;;;;;5013094;28;20054;-56
2021/06/15 03:54:56;;;;;;;2.80;2.67;;;;;;;;;;5006356;28;20519;-56
2021/06/15 03:57:27;;;;;;;3.80;3.50;;;;;;;;;;5003531;28;20030;-56
2021/06/15 03:59:56;;;;;;;4.03;3.67;;;;;;;;;;5004724;28;20034;-56
2021/06/15 04:02:27;;;;;;;4.18;3.63;;;;;;;;;;5011867;28;20061;-56
2021/06/15 04:04:57;;;;;;;4.20;3.58;;;;;;;;;;5012020;28;20038;-56
2021/06/15 04:07:29;;;;;;;3.22;3.13;;;;;;;;;;5011457;28;20038;-56
2021/06/15 04:10:00;;;;;;;;;;;;;;;;;;5011274;28;20042;-56
2021/06/15 04:12:30;;;;;;;3.38;3.13;;;;;;;;;;5013216;28;19928;-56
2021/06/15 04:15:00;;;;;;;3.53;3.35;;;;;;;;;;5010478;28;20375;-56
2021/06/15 04:17:32;;;;;;;4.00;3.67;;;;;;;;;;5010586;28;20475;-56
2021/06/15 04:20:11;;;;;;;3.75;3.38;;;;;;;;;;5011042;28;20038;-55
2021/06/15 04:22:48;;;;;;;3.70;3.55;;;;;;;;;;4993428;28;20145;-56
2021/06/15 04:25:23;;;;;;;4.13;3.80;;;;;;;;;;5011291;28;20874;-56
2021/06/15 04:27:58;;;;;;;3.88;3.78;;;;;;;;;;5011583;28;20124;-56
2021/06/15 04:30:37;;;;;;;4.28;4.13;;;;;;;;;;5006672;28;20415;-56
2021/06/15 04:33:16;;;;;;;3.83;3.72;;;;;;;;;;4972256;28;20499;-56
2021/06/15 04:35:48;;;;;;;3.33;3.22;;;;;;;;;;5009917;28;20128;-55
2021/06/15 04:38:32;;;;;;;4.00;3.70;;;;;;;;;;5008096;28;20042;-56
2021/06/15 04:41:09;;;;;;;3.17;3.05;;;;;;;;;;5014103;28;20058;-56
2021/06/15 04:43:40;;;;;;;4.35;4.10;;;;;;;;;;5010264;28;20038;-57
2021/06/15 04:46:18;;;;;;;3.58;3.38;;;;;;;;;;5010025;28;20037;-56
2021/06/15 04:49:01;;;;;;;2.70;2.60;;;;;;;;;;5011195;28;20046;-56
2021/06/15 04:51:35;;;;;;;3.38;3.28;;;;;;;;;;5010067;28;20449;-55
2021/06/15 04:54:14;;;;;;;5.38;3.50;;;;;;;;;;5009003;28;20050;-56
2021/06/15 04:56:54;;;;;;;3.47;3.22;;;;;;;;;;5011458;28;20069;-56
2021/06/15 04:59:25;;;;;;;3.03;2.88;;;;;;;;;;5010527;28;20115;-56
2021/06/15 05:02:05;;;;;;;3.17;2.97;;;;;;;;;;4981535;28;20038;-56
2021/06/15 05:04:35;;;;;;;;;;;;;;;;;;5011480;28;20041;-56
2021/06/15 05:07:02;;;;;;;4.05;3.20;;;;;;;;;;5009182;28;20383;-56
2021/06/15 05:09:30;;;;;;;4.13;2.80;;;;;;;;;;5010872;28;20053;-56
2021/06/15 05:12:00;;;;;;;3.72;3.63;;;;;;;;;;5010669;28;20478;-56
2021/06/15 05:14:36;;;;;;;3.35;3.20;;;;;;;;;;5009629;28;20397;-56
2021/06/15 05:17:12;;;;;;;3.13;3.03;;;;;;;;;;5008806;28;20065;-56
2021/06/15 05:19:48;;;;;;;4.00;3.80;;;;;;;;;;5007083;28;20081;-56
2021/06/15 05:22:18;;;;;;;3.20;2.67;;;;;;;;;;5009709;28;20480;-56
2021/06/15 05:24:48;;;;;;;14.48;4.05;;;;;;;;;;5010500;28;20034;-55
2021/06/15 05:27:30;;;;;;;2.85;2.70;;;;;;;;;;5010749;28;20622;-55
2021/06/15 05:30:08;;;;;;;6.60;3.38;;;;;;;;;;4974449;28;20137;-59
2021/06/15 05:32:48;;;;;;;3.05;2.67;;;;;;;;;;4973670;28;20388;-56
2021/06/15 05:35:18;;;;;;;3.88;3.50;;;;;;;;;;5009688;28;20042;-56
2021/06/15 05:37:54;;;;;;;2.90;2.67;;;;;;;;;;5009764;28;20092;-56
2021/06/15 05:40:26;;;;;;;3.25;3.05;;;;;;;;;;5010685;28;20042;-55
2021/06/15 05:43:06;;;;;;;3.00;2.80;;;;;;;;;;5004812;28;20324;-55
2021/06/15 05:45:37;;;;;;;8.73;4.20;;;;;;;;;;5001554;28;20382;-55
2021/06/15 05:48:14;;;;;;;2.58;2.38;;;;;;;;;;5007605;28;20056;-55
2021/06/15 05:50:48;;;;;;;5.53;2.90;;;;;;;;;;5009990;28;20037;-54
2021/06/15 05:53:20;;;;;;;3.20;3.00;;;;;;;;;;5010191;28;20049;-56
2021/06/15 05:56:03;;;;;;;3.60;2.70;;;;;;;;;;5008564;28;20030;-55
2021/06/15 05:58:37;;;;;;;3.38;3.08;;;;;;;;;;5003042;28;20041;-55
2021/06/15 06:01:10;;;;;;;2.25;2.15;;;;;;;;;;5010845;28;20030;-55
2021/06/15 06:03:58;;;;;;;9.13;3.13;;;;;;;;;;5007822;28;20099;-56
2021/06/15 06:09:24;;;;;;;5.75;3.33;;;;;;;;;;5009609;28;20068;-54
2021/06/15 06:11:59;;;;;;;2.72;2.45;;;;;;;;;;5006688;28;20038;-55
2021/06/15 06:14:41;;;;;;;6.97;2.55;;;;;;;;;;4976710;28;20054;-55
2021/06/15 06:17:14;;;;;;;5.43;2.70;;;;;;;;;;5009307;28;20150;-53
2021/06/15 06:20:05;;;;;;;2.88;2.67;;;;;;;;;;5006312;28;20564;-55
2021/06/15 06:22:40;;;;;;;3.47;2.83;;;;;;;;;;5008738;28;20034;-55
2021/06/15 06:25:17;;;;;;;7.05;2.17;;;;;;;;;;5008176;28;20509;-54
2021/06/15 06:27:49;;;;;;;3.25;2.97;;;;;;;;;;4975886;28;20116;-54
2021/06/15 06:30:20;;;;;;;4.28;2.10;;;;;;;;;;5007424;28;20069;-54
2021/06/15 06:32:58;;;;;;;3.45;2.60;;;;;;;;;;5002219;28;20046;-54
2021/06/15 06:35:34;;;;;;;2.08;1.83;;;;;;;;;;4969731;28;20073;-53
2021/06/15 06:38:05;;;;;;;3.50;2.00;;;;;;;;;;5011289;28;20398;-54
2021/06/15 06:40:33;;;;;;;2.58;2.20;;;;;;;;;;5006455;28;20038;-54
2021/06/15 06:43:03;;;;;;;1.67;1.67;;;;;;;;;;5005948;28;20050;-54
2021/06/15 06:45:39;;;;;;;2.30;1.50;;;;;;;;;;5008753;28;20062;-54
2021/06/15 06:48:18;;;;;;;2.00;1.83;;;;;;;;;;5008459;28;20054;-55
2021/06/15 06:50:53;;;;;;;1.92;1.83;;;;;;;;;;4989650;28;20541;-54
2021/06/15 06:53:33;;;;;;;1.73;1.65;;;;;;;;;;5007728;28;20426;-54
2021/06/15 06:56:06;;;;;;;2.42;1.60;;;;;;;;;;5005991;28;20510;-54
2021/06/15 06:58:43;;;;;;;4.35;1.80;;;;;;;;;;4989425;28;20057;-55
2021/06/15 07:01:15;;;;;;;3.33;1.50;;;;;;;;;;5005490;28;20030;-54
2021/06/15 07:03:45;;;;;;;2.28;1.40;;;;;;;;;;4997178;28;20038;-54
2021/06/15 07:06:19;;;;;;;1.40;1.30;;;;;;;;;;5026859;28;20116;-55
2021/06/15 07:08:50;;;;;;;3.35;2.05;;;;;;;;;;5007300;28;20057;-54
2021/06/15 07:11:22;;;;;;;1.58;1.42;;;;;;;;;;5004628;28;20041;-55
2021/06/15 07:13:57;;;;;;;2.60;1.58;;;;;;;;;;5002481;28;20062;-54
2021/06/15 07:16:27;;;;;;;1.70;0.90;;;;;;;;;;5005290;28;20046;-54
2021/06/15 07:19:02;;;;;;;1.73;0.90;;;;;;;;;;4958027;28;20058;-55
2021/06/15 07:21:29;;;;;;;1.83;0.85;;;;;;;;;;5013004;28;20066;-55
2021/06/15 07:24:00;;;;;;;0.88;0.80;;;;;;;;;;5010450;28;20092;-55
2021/06/15 07:26:31;;;;;;;2.28;0.88;;;;;;;;;;5025140;28;20069;-55
2021/06/15 07:29:01;;;;;;;2.45;0.88;;;;;;;;;;5011861;28;20046;-54
2021/06/15 07:31:31;;;;;;;2.67;0.70;;;;;;;;;;5012610;28;20107;-55
2021/06/15 07:33:58;;;;;;;0.70;0.70;;;;;;;;;;5001454;28;20490;-55
2021/06/15 07:36:25;;;;;;;0.70;0.70;;;;;;;;;;5006255;28;20036;-55
2021/06/15 07:38:55;;;;;;;1.95;0.60;;;;;;;;;;5010973;28;20034;-55
2021/06/15 07:41:25;;;;;;;0.60;0.60;;;;;;;;;;5013183;28;20034;-55
2021/06/15 07:43:56;;;;;;;1.85;0.70;;;;;;;;;;5007095;28;20129;-55
2021/06/15 07:46:27;;;;;;;2.97;0.70;;;;;;;;;;5012857;28;20064;-55
2021/06/15 07:48:59;;;;;;;0.70;0.70;;;;;;;;;;5009486;28;20041;-56
2021/06/15 07:51:35;;;;;;;5.90;0.70;;;;;;;;;;5011224;28;20437;-55
2021/06/15 07:54:05;;;;;;;6.57;0.60;;;;;;;;;;5013179;28;20096;-55
2021/06/15 07:56:38;;;;;;;0.85;0.60;;;;;;;;;;5010743;28;20044;-55
2021/06/15 07:59:11;;;;;;;0.60;0.60;;;;;;;;;;5000249;28;20041;-56
2021/06/15 08:01:43;;;;;;;0.85;0.70;;;;;;;;;;5011959;28;20030;-55
2021/06/15 08:04:16;;;;;;;0.50;0.50;;;;;;;;;;5009362;28;20437;-56
2021/06/15 08:06:47;;;;;;;0.50;0.50;;;;;;;;;;5028687;28;20061;-55
2021/06/15 08:09:17;;;;;;;1.83;0.60;;;;;;;;;;5009215;28;20053;-55
2021/06/15 08:11:44;;;;;;;0.93;0.50;;;;;;;;;;5010795;28;20058;-54
2021/06/15 08:14:12;;;;;;;1.00;0.50;;;;;;;;;;5013307;28;20044;-56
2021/06/15 08:16:40;;;;;;;2.17;0.40;;;;;;;;;;5009998;28;20046;-56
2021/06/15 08:19:08;;;;;;;0.40;0.40;;;;;;;;;;4999392;28;20066;-55
2021/06/15 08:21:36;;;;;;;0.90;0.40;;;;;;;;;;5010586;28;20038;-56
2021/06/15 08:24:08;;;;;;;0.85;0.40;;;;;;;;;;5009798;28;20037;-55
2021/06/15 08:26:37;;;;;;;0.40;0.40;;;;;;;;;;5012270;28;20502;-56
2021/06/15 08:29:07;;;;;;;0.40;0.40;;;;;;;;;;5008689;28;20052;-56
2021/06/15 08:31:36;;;;;;;0.68;0.40;;;;;;;;;;5007051;28;20039;-55
2021/06/15 08:34:04;;;;;;;2.08;0.50;;;;;;;;;;5011844;28;20088;-55
2021/06/15 08:36:33;;;;;;;0.50;0.50;;;;;;;;;;5009493;28;20049;-56
2021/06/15 08:39:04;;;;;;;0.40;0.40;;;;;;;;;;5012225;28;20375;-55
2021/06/15 08:41:36;;;;;;;0.40;0.40;;;;;;;;;;5009903;28;20042;-56
2021/06/15 08:44:07;;;;;;;0.88;0.40;;;;;;;;;;5010391;28;20645;-56
2021/06/15 08:46:37;;;;;;;0.50;0.50;;;;;;;;;;5012038;28;20049;-55
2021/06/15 08:49:07;;;;;;;0.98;0.50;;;;;;;;;;5008433;28;20041;-56
2021/06/15 08:51:37;;;;;;;1.35;0.50;;;;;;;;;;5009799;28;20042;-55
2021/06/15 08:54:12;;;;;;;0.87;0.87;;;;;;;;;;5011310;28;20099;-56
2021/06/15 08:56:48;;;;;;;1.05;0.50;;;;;;;;;;5004127;28;20046;-56
2021/06/15 08:59:22;;;;;;;2.80;0.50;;;;;;;;;;5005121;28;20038;-56
2021/06/15 09:01:55;;;;;;;1.67;0.50;;;;;;;;;;5010224;28;20038;-55
2021/06/15 09:04:26;;;;;;;0.50;0.50;;;;;;;;;;4996777;28;20084;-55
2021/06/15 09:06:58;;;;;;;0.50;0.50;;;;;;;;;;5010047;28;20486;-56
2021/06/15 09:09:40;;;;;;;0.50;0.50;;;;;;;;;;5008396;28;20046;-53
2021/06/15 09:12:09;;;;;;;0.75;0.50;;;;;;;;;;5008488;28;20493;-56
2021/06/15 09:14:48;;;;;;;0.40;0.40;;;;;;;;;;5011197;28;20050;-55
2021/06/15 09:17:28;;;;;;;0.40;0.40;;;;;;;;;;5010283;28;20056;-55
2021/06/15 09:19:59;;;;;;;1.30;0.40;;;;;;;;;;5005761;28;20045;-56
2021/06/15 09:22:32;;;;;;;0.50;0.50;;;;;;;;;;5009602;28;20057;-56
2021/06/15 09:25:04;;;;;;;0.40;0.40;;;;;;;;;;5008533;28;20117;-56
2021/06/15 09:27:32;;;;;;;0.40;0.40;;;;;;;;;;5008818;28;20042;-56
2021/06/15 09:30:13;;;;;;;0.57;0.40;;;;;;;;;;5008769;28;20133;-55
2021/06/15 09:32:44;;;;;;;0.43;0.43;;;;;;;;;;5008047;28;20061;-55
2021/06/15 09:35:17;;;;;;;1.55;0.40;;;;;;;;;;5011703;28;20041;-55
2021/06/15 09:37:56;;;;;;;0.55;0.40;;;;;;;;;;5007259;28;20069;-55
2021/06/15 09:40:28;;;;;;;0.40;0.40;;;;;;;;;;5009306;28;20538;-56
2021/06/15 09:43:10;;;;;;;0.88;0.30;;;;;;;;;;5011564;28;20096;-56
2021/06/15 09:45:41;;;;;;;0.75;0.75;;;;;;;;;;5008106;28;20133;-56
2021/06/15 09:48:22;;;;;;;1.75;0.40;;;;;;;;;;5009290;28;20064;-56
2021/06/15 09:50:59;;;;;;;0.40;0.40;;;;;;;;;;5010405;28;20466;-56
2021/06/15 09:53:36;;;;;;;0.40;0.40;;;;;;;;;;4989433;28;20587;-56
2021/06/15 09:56:11;;;;;;;0.93;0.40;;;;;;;;;;4991954;28;20064;-56
2021/06/15 09:58:44;;;;;;;0.40;0.40;;;;;;;;;;5005565;28;20037;-56
2021/06/15 10:01:28;;;;;;;0.75;0.30;;;;;;;;;;5007715;28;20042;-57
2021/06/15 10:04:15;;;;;;;0.60;0.35;;;;;;;;;;5008927;28;20050;-56
2021/06/15 10:06:48;;;;;;;1.70;0.40;;;;;;;;;;5008597;28;20103;-56
2021/06/15 10:09:23;;;;;;;0.52;0.40;;;;;;;;;;5003565;28;20414;-55
2021/06/15 10:11:55;;;;;;;0.30;0.30;;;;;;;;;;5011528;28;20050;-56
2021/06/15 10:14:27;;;;;;;0.40;0.40;;;;;;;;;;5004901;28;20045;-56
2021/06/15 10:16:56;;;;;;;0.73;0.47;;;;;;;;;;5007298;28;20066;-57
2021/06/15 10:19:26;;;;;;;0.40;0.40;;;;;;;;;;5010031;28;20052;-56
2021/06/15 10:21:55;;;;;;;0.50;0.50;;;;;;;;;;5007130;28;20132;-56
2021/06/15 10:24:28;;;;;;;0.40;0.40;;;;;;;;;;5008502;28;20038;-56
2021/06/15 10:27:04;;;;;;;1.25;0.40;;;;;;;;;;5009854;28;20121;-56
2021/06/15 10:29:37;;;;;;;1.38;0.50;;;;;;;;;;5010425;28;20041;-56
2021/06/15 10:32:11;;;;;;;0.40;0.40;;;;;;;;;;5008436;28;20167;-56
2021/06/15 10:34:59;;;;;;;1.75;0.30;;;;;;;;;;5008047;28;20073;-56
2021/06/15 10:37:33;;;;;;;0.35;0.35;;;;;;;;;;5005189;28;20084;-56
2021/06/15 10:40:04;;;;;;;0.60;0.50;;;;;;;;;;5009940;28;20099;-56
2021/06/15 10:42:35;;;;;;;0.30;0.30;;;;;;;;;;5006464;28;20581;-56
2021/06/15 10:45:16;;;;;;;0.40;0.40;;;;;;;;;;5011697;28;20070;-56
2021/06/15 10:48:06;;;;;;;1.20;0.30;;;;;;;;;;5012209;28;20046;-56
2021/06/15 10:50:46;;;;;;;0.32;0.32;;;;;;;;;;5007703;28;20073;-55
2021/06/15 10:53:17;;;;;;;1.10;0.40;;;;;;;;;;4991694;28;20065;-56
2021/06/15 10:55:49;;;;;;;1.55;0.30;;;;;;;;;;5008459;28;20080;-56
2021/06/15 10:58:32;;;;;;;0.65;0.38;;;;;;;;;;5012007;28;20038;-57
2021/06/15 11:01:42;;;;;;;0.30;0.30;;;;;;;;;;5012014;28;20046;-56
2021/06/15 11:04:13;;;;;;;0.55;0.40;;;;;;;;;;4950894;28;20082;-56
2021/06/15 11:06:44;;;;;;;0.75;0.30;;;;;;;;;;4948750;29;20598;-56
2021/06/15 11:09:19;;;;;;;2.00;0.40;;;;;;;;;;4950079;29;20055;-56
2021/06/15 11:12:01;;;;;;;1.75;0.40;;;;;;;;;;4950866;29;20047;-56
2021/06/15 11:14:33;;;;;;;0.32;0.32;;;;;;;;;;4945364;28;20047;-56
2021/06/15 11:17:01;;;;;;;0.30;0.30;;;;;;;;;;4951786;29;20550;-56
2021/06/15 11:19:35;;;;;;;0.40;0.40;;;;;;;;;;4947418;29;20561;-56
2021/06/15 11:22:07;;;;;;;0.30;0.30;;;;;;;;;;4944734;29;20047;-57
2021/06/15 11:24:45;;;;;;;0.30;0.30;;;;;;;;;;4938787;29;20044;-56
2021/06/15 11:27:18;;;;;;;0.40;0.40;;;;;;;;;;4945340;29;20039;-56
2021/06/15 11:29:47;;;;;;;0.35;0.35;;;;;;;;;;4950161;29;20036;-57
2021/06/15 11:32:20;;;;;;;0.32;0.30;;;;;;;;;;4950601;29;20428;-55
2021/06/15 11:34:58;;;;;;;0.38;0.38;;;;;;;;;;4974986;28;20656;-55
2021/06/15 11:37:33;;;;;;;1.75;0.40;;;;;;;;;;5019555;28;20038;-52
2021/06/15 11:40:10;;;;;;;0.50;0.35;;;;;;;;;;5012749;28;20041;-52
2021/06/15 11:42:43;;;;;;;0.60;0.40;;;;;;;;;;5011960;28;20146;-50
2021/06/15 11:45:20;;;;;;;0.65;0.40;;;;;;;;;;5013355;28;20034;-51
2021/06/15 11:47:56;;;;;;;0.40;0.30;;;;;;;;;;5012268;28;20049;-52
2021/06/15 11:50:30;;;;;;;0.30;0.30;;;;;;;;;;5012713;28;20061;-52
2021/06/15 11:53:03;;;;;;;0.30;0.30;;;;;;;;;;5012586;28;20505;-52
2021/06/15 11:55:37;;;;;;;0.30;0.30;;;;;;;;;;5010978;28;20478;-49
2021/06/15 11:58:16;;;;;;;2.00;0.30;;;;;;;;;;5006405;28;20141;-52
2021/06/15 12:00:51;;;;;;;0.60;0.30;;;;;;;;;;5013408;28;20048;-50
2021/06/15 12:03:21;;;;;;;;;;;;;;;;;;5012452;28;20104;-53
2021/06/15 12:05:56;;;;;;;0.30;0.30;;;;;;;;;;5008011;28;19928;-51
2021/06/15 12:08:31;;;;;;;0.55;0.30;;;;;;;;;;5011365;28;20100;-52
2021/06/15 12:11:00;;;;;;;0.82;0.30;;;;;;;;;;5010714;28;20037;-50
2021/06/15 12:13:31;;;;;;;0.30;0.30;;;;;;;;;;5013281;28;20040;-51
2021/06/15 12:16:03;;;;;;;0.30;0.30;;;;;;;;;;5010834;28;20092;-50
2021/06/15 12:18:44;;;;;;;0.40;0.40;;;;;;;;;;5010657;28;20125;-50
2021/06/15 12:21:22;;;;;;;0.85;0.40;;;;;;;;;;5011794;28;20046;-49
2021/06/15 12:23:55;;;;;;;0.38;0.30;;;;;;;;;;5012489;28;20533;-49
2021/06/15 12:26:58;;;;;;;2.05;0.30;;;;;;;;;;5010035;28;20741;-52
2021/06/15 12:29:30;;;;;;;0.60;0.30;;;;;;;;;;5008289;28;20046;-48
2021/06/15 12:32:03;;;;;;;0.30;0.30;;;;;;;;;;5009308;28;20048;-49
2021/06/15 12:34:43;;;;;;;1.27;0.40;;;;;;;;;;4994314;28;20049;-52
2021/06/15 12:37:12;;;;;;;0.38;0.30;;;;;;;;;;5013135;28;20464;-50
2021/06/15 12:39:54;;;;;;;1.08;0.28;;;;;;;;;;5022498;28;20054;-51
2021/06/15 12:42:24;;;;;;;0.30;0.30;;;;;;;;;;5007314;28;20069;-50
2021/06/15 12:45:00;;;;;;;1.75;0.30;;;;;;;;;;5012835;28;20053;-48
2021/06/15 12:47:32;;;;;;;0.55;0.28;;;;;;;;;;5008418;28;20453;-50
2021/06/15 12:50:05;;;;;;;0.35;0.30;;;;;;;;;;5008071;28;20038;-50
2021/06/15 12:52:38;;;;;;;0.30;0.30;;;;;;;;;;5016305;28;20041;-51
2021/06/15 12:55:12;;;;;;;0.40;0.40;;;;;;;;;;5018346;28;20070;-55
2021/06/15 12:57:39;;;;;;;;;;;;;;;;;;5012694;28;20604;-56
2021/06/15 13:00:13;;;;;;;0.20;0.20;;;;;;;;;;5008033;28;20392;-56
2021/06/15 13:02:41;;;;;;;0.30;0.30;;;;;;;;;;5008255;28;20062;-55
2021/06/15 13:05:11;;;;;;;;;;;;;;;;;;5003422;28;20446;-55
2021/06/15 13:07:40;;;;;;;0.20;0.20;;;;;;;;;;5004584;28;19928;-56
2021/06/15 13:10:15;;;;;;;0.35;0.30;;;;;;;;;;5011567;28;20037;-56
2021/06/15 13:12:47;;;;;;;0.20;0.20;;;;;;;;;;5011268;28;20041;-56
2021/06/15 13:15:23;;;;;;;2.45;0.30;;;;;;;;;;4974161;28;20146;-56
2021/06/15 13:17:56;;;;;;;0.20;0.20;;;;;;;;;;5011074;28;20072;-56
2021/06/15 13:20:29;;;;;;;0.30;0.30;;;;;;;;;;5008276;28;20029;-56
2021/06/15 13:23:00;;;;;;;4.18;0.30;;;;;;;;;;5009789;28;20042;-56
2021/06/15 13:25:28;;;;;;;1.15;0.30;;;;;;;;;;5010915;28;20124;-56
2021/06/15 13:28:00;;;;;;;0.20;0.20;;;;;;;;;;5009702;28;20048;-56
2021/06/15 13:30:37;;;;;;;0.20;0.20;;;;;;;;;;4996230;28;20100;-56
2021/06/15 13:33:14;;;;;;;0.30;0.30;;;;;;;;;;5009273;28;20111;-56
2021/06/15 13:35:48;;;;;;;0.20;0.20;;;;;;;;;;5010516;28;20049;-56
2021/06/15 13:38:19;;;;;;;0.25;0.25;;;;;;;;;;5008439;28;20186;-56
2021/06/15 13:40:54;;;;;;;0.20;0.20;;;;;;;;;;5009799;28;20061;-56
2021/06/15 13:43:30;;;;;;;0.65;0.20;;;;;;;;;;5007220;28;20033;-57
2021/06/15 13:46:21;;;;;;;0.30;0.30;;;;;;;;;;5007987;28;20054;-56
2021/06/15 13:49:08;;;;;;;0.20;0.20;;;;;;;;;;5010766;28;20429;-56
2021/06/15 13:51:38;;;;;;;0.30;0.30;;;;;;;;;;5007400;28;20048;-56
2021/06/15 13:54:07;;;;;;;0.30;0.30;;;;;;;;;;4996109;28;20048;-56
2021/06/15 13:56:44;;;;;;;0.30;0.30;;;;;;;;;;5010001;28;20034;-56
2021/06/15 13:59:13;;;;;;;0.20;0.20;;;;;;;;;;5009825;28;20045;-56
2021/06/15 14:01:45;;;;;;;0.63;0.30;;;;;;;;;;5009759;28;20509;-55
2021/06/15 14:04:19;;;;;;;0.20;0.20;;;;;;;;;;5011400;28;20723;-56
2021/06/15 14:06:48;;;;;;;0.20;0.20;;;;;;;;;;4998285;28;20037;-56
2021/06/15 14:09:27;;;;;;;0.30;0.30;;;;;;;;;;5009361;28;20172;-55
2021/06/15 14:11:55;;;;;;;0.20;0.20;;;;;;;;;;5006498;28;20038;-56
2021/06/15 14:14:28;;;;;;;0.20;0.20;;;;;;;;;;5023378;28;20132;-56
2021/06/15 14:17:02;;;;;;;0.20;0.20;;;;;;;;;;5010730;28;20775;-56
2021/06/15 14:19:40;;;;;;;1.48;0.30;;;;;;;;;;5007064;28;20126;-56
2021/06/15 14:22:11;;;;;;;0.57;0.35;;;;;;;;;;5009052;28;20057;-57
2021/06/15 14:24:41;;;;;;;0.30;0.30;;;;;;;;;;5009477;28;20898;-56
2021/06/15 14:27:11;;;;;;;1.58;0.28;;;;;;;;;;5006073;28;20037;-57
2021/06/15 14:29:44;;;;;;;0.20;0.20;;;;;;;;;;5008668;28;20056;-56
2021/06/15 14:32:14;;;;;;;1.35;0.20;;;;;;;;;;5007353;28;20075;-57
2021/06/15 14:34:50;;;;;;;0.30;0.30;;;;;;;;;;5002134;28;20564;-56
2021/06/15 14:37:19;;;;;;;0.65;0.30;;;;;;;;;;5004824;28;20066;-55
2021/06/15 14:39:51;;;;;;;1.63;0.30;;;;;;;;;;5002909;28;20113;-56
2021/06/15 14:42:24;;;;;;;0.57;0.30;;;;;;;;;;5007262;28;20347;-56
2021/06/15 14:44:53;;;;;;;0.77;0.20;;;;;;;;;;5009059;28;20489;-56
2021/06/15 14:47:28;;;;;;;0.25;0.25;;;;;;;;;;4987708;28;20054;-56
2021/06/15 14:49:58;;;;;;;0.30;0.30;;;;;;;;;;5011179;28;20057;-55
2021/06/15 14:52:30;;;;;;;0.20;0.20;;;;;;;;;;5007443;28;20449;-56
2021/06/15 14:55:04;;;;;;;0.30;0.30;;;;;;;;;;4995123;28;20052;-56
2021/06/15 14:57:39;;;;;;;0.30;0.30;;;;;;;;;;5009802;28;20089;-56
2021/06/15 15:00:10;;;;;;;0.30;0.30;;;;;;;;;;5006630;28;20034;-55
2021/06/15 15:02:40;;;;;;;0.30;0.30;;;;;;;;;;4991859;28;20132;-56
2021/06/15 15:05:10;;;;;;;0.20;0.20;;;;;;;;;;5009050;28;20069;-56
2021/06/15 15:07:44;;;;;;;0.30;0.30;;;;;;;;;;5007589;28;20042;-56
2021/06/15 15:10:17;;;;;;;0.55;0.20;;;;;;;;;;5008871;28;20046;-56
2021/06/15 15:12:53;;;;;;;0.20;0.20;;;;;;;;;;5007236;28;20049;-57
2021/06/15 15:15:45;;;;;;;0.20;0.20;;;;;;;;;;5008407;28;20524;-55
2021/06/15 15:18:15;;;;;;;0.82;0.30;;;;;;;;;;5008945;28;20120;-56
2021/06/15 15:20:45;;;;;;;0.30;0.30;;;;;;;;;;5007174;28;20637;-56
2021/06/15 15:23:18;;;;;;;0.30;0.30;;;;;;;;;;5005764;28;20042;-55
2021/06/15 15:25:53;;;;;;;0.47;0.30;;;;;;;;;;5010194;28;20109;-55
2021/06/15 15:28:27;;;;;;;0.35;0.30;;;;;;;;;;5006592;28;20121;-56